Terminal Aerodrome Forecast
Issued by NWS

Home | Current Version | Previous Version | Text Only | Print | Product List | Glossary Off
Versions: 1 2 3 4 5 6 7 8 9 10 11 12 13 14 15 16 17 18 19 20 21 22
000 FTUS41 KBOX 221731 TAFBED TAF KBED 221731Z 2218/2318 02014G28KT 3SM -SHRA BR OVC008 FM230000 01014G26KT 2SM +RA BR OVC008 WS020/04040KT FM231000 01015G29KT 3SM SHRA OVC008=

USA.gov is the U.S. government's official web portal to all federal, state and local government web resources and services.